sensor_id;sensor_type;location;lat;lon;timestamp;temperature;humidity
70734;DHT22;58320;48.804;9.252;2024-01-30T00:02:06;3.50;79.00
70734;DHT22;58320;48.804;9.252;2024-01-30T00:04:31;3.40;78.90
70734;DHT22;58320;48.804;9.252;2024-01-30T00:06:57;3.40;79.10
70734;DHT22;58320;48.804;9.252;2024-01-30T00:09:23;3.40;79.30
70734;DHT22;58320;48.804;9.252;2024-01-30T00:11:48;3.40;79.40
70734;DHT22;58320;48.804;9.252;2024-01-30T00:14:14;3.30;79.30
70734;DHT22;58320;48.804;9.252;2024-01-30T00:16:40;3.30;79.30
70734;DHT22;58320;48.804;9.252;2024-01-30T00:19:05;3.20;79.30
70734;DHT22;58320;48.804;9.252;2024-01-30T00:21:31;3.20;79.20
70734;DHT22;58320;48.804;9.252;2024-01-30T00:23:57;3.10;79.60
70734;DHT22;58320;48.804;9.252;2024-01-30T00:26:22;3.10;79.90
70734;DHT22;58320;48.804;9.252;2024-01-30T00:28:48;3.00;80.10
70734;DHT22;58320;48.804;9.252;2024-01-30T00:31:14;3.00;80.70
70734;DHT22;58320;48.804;9.252;2024-01-30T00:33:40;3.10;80.60
70734;DHT22;58320;48.804;9.252;2024-01-30T00:36:08;3.10;80.50
70734;DHT22;58320;48.804;9.252;2024-01-30T00:38:35;3.10;80.10
70734;DHT22;58320;48.804;9.252;2024-01-30T00:41:01;3.10;80.10
70734;DHT22;58320;48.804;9.252;2024-01-30T00:43:30;3.10;80.20
70734;DHT22;58320;48.804;9.252;2024-01-30T00:45:56;3.20;80.40
70734;DHT22;58320;48.804;9.252;2024-01-30T00:48:23;3.20;80.30
70734;DHT22;58320;48.804;9.252;2024-01-30T00:50:49;3.20;80.10
70734;DHT22;58320;48.804;9.252;2024-01-30T00:53:15;3.30;79.90
70734;DHT22;58320;48.804;9.252;2024-01-30T00:55:40;3.20;79.90
70734;DHT22;58320;48.804;9.252;2024-01-30T00:58:06;3.20;80.10
70734;DHT22;58320;48.804;9.252;2024-01-30T01:00:32;3.10;80.10
70734;DHT22;58320;48.804;9.252;2024-01-30T01:02:58;3.10;80.50
70734;DHT22;58320;48.804;9.252;2024-01-30T01:05:24;3.10;80.70
70734;DHT22;58320;48.804;9.252;2024-01-30T01:07:50;3.20;80.80
70734;DHT22;58320;48.804;9.252;2024-01-30T01:10:19;3.20;80.70
70734;DHT22;58320;48.804;9.252;2024-01-30T01:12:45;3.20;80.80
70734;DHT22;58320;48.804;9.252;2024-01-30T01:15:11;3.20;81.30
70734;DHT22;58320;48.804;9.252;2024-01-30T01:17:37;3.10;81.60
70734;DHT22;58320;48.804;9.252;2024-01-30T01:20:04;3.10;81.30
70734;DHT22;58320;48.804;9.252;2024-01-30T01:22:32;3.10;81.40
70734;DHT22;58320;48.804;9.252;2024-01-30T01:24:58;3.00;81.80
70734;DHT22;58320;48.804;9.252;2024-01-30T01:27:24;3.00;82.50
70734;DHT22;58320;48.804;9.252;2024-01-30T01:29:51;3.00;82.30
70734;DHT22;58320;48.804;9.252;2024-01-30T01:32:16;3.00;82.20
70734;DHT22;58320;48.804;9.252;2024-01-30T01:34:42;2.90;82.30
70734;DHT22;58320;48.804;9.252;2024-01-30T01:37:08;2.90;82.40
70734;DHT22;58320;48.804;9.252;2024-01-30T01:39:34;2.90;82.40
70734;DHT22;58320;48.804;9.252;2024-01-30T01:41:59;2.90;82.30
70734;DHT22;58320;48.804;9.252;2024-01-30T01:44:25;2.90;82.20
70734;DHT22;58320;48.804;9.252;2024-01-30T01:46:52;2.90;82.20
70734;DHT22;58320;48.804;9.252;2024-01-30T01:49:18;2.90;82.30
70734;DHT22;58320;48.804;9.252;2024-01-30T01:51:45;2.90;82.30
70734;DHT22;58320;48.804;9.252;2024-01-30T01:54:11;2.90;82.20
70734;DHT22;58320;48.804;9.252;2024-01-30T01:56:37;2.90;82.40
70734;DHT22;58320;48.804;9.252;2024-01-30T01:59:07;2.80;82.60
70734;DHT22;58320;48.804;9.252;2024-01-30T02:01:35;2.80;82.80
70734;DHT22;58320;48.804;9.252;2024-01-30T02:04:02;2.80;82.90
70734;DHT22;58320;48.804;9.252;2024-01-30T02:06:28;2.80;82.90
70734;DHT22;58320;48.804;9.252;2024-01-30T02:08:54;2.70;82.80
70734;DHT22;58320;48.804;9.252;2024-01-30T02:11:20;2.70;83.10
70734;DHT22;58320;48.804;9.252;2024-01-30T02:13:48;2.70;83.30
70734;DHT22;58320;48.804;9.252;2024-01-30T02:16:14;2.60;83.40
70734;DHT22;58320;48.804;9.252;2024-01-30T02:18:40;2.60;83.30
70734;DHT22;58320;48.804;9.252;2024-01-30T02:21:10;2.60;83.30
70734;DHT22;58320;48.804;9.252;2024-01-30T02:23:36;2.70;83.20
70734;DHT22;58320;48.804;9.252;2024-01-30T02:26:03;2.70;83.00
70734;DHT22;58320;48.804;9.252;2024-01-30T02:28:29;2.60;83.10
70734;DHT22;58320;48.804;9.252;2024-01-30T02:30:54;2.60;83.20
70734;DHT22;58320;48.804;9.252;2024-01-30T02:33:20;2.60;83.20
70734;DHT22;58320;48.804;9.252;2024-01-30T02:35:47;2.50;83.10
70734;DHT22;58320;48.804;9.252;2024-01-30T02:38:15;2.40;83.30
70734;DHT22;58320;48.804;9.252;2024-01-30T02:40:41;2.30;84.10
70734;DHT22;58320;48.804;9.252;2024-01-30T02:43:07;2.30;84.40
70734;DHT22;58320;48.804;9.252;2024-01-30T02:45:33;2.20;84.50
70734;DHT22;58320;48.804;9.252;2024-01-30T02:47:59;2.20;84.80
70734;DHT22;58320;48.804;9.252;2024-01-30T02:50:24;2.10;85.00
70734;DHT22;58320;48.804;9.252;2024-01-30T02:52:50;2.10;85.20
70734;DHT22;58320;48.804;9.252;2024-01-30T02:55:16;2.20;86.00
70734;DHT22;58320;48.804;9.252;2024-01-30T02:57:44;2.20;85.90
70734;DHT22;58320;48.804;9.252;2024-01-30T03:00:10;2.20;85.90
70734;DHT22;58320;48.804;9.252;2024-01-30T03:02:36;2.20;85.90
70734;DHT22;58320;48.804;9.252;2024-01-30T03:05:02;2.20;85.60
70734;DHT22;58320;48.804;9.252;2024-01-30T03:07:29;2.20;85.60
70734;DHT22;58320;48.804;9.252;2024-01-30T03:09:55;2.20;85.50
70734;DHT22;58320;48.804;9.252;2024-01-30T03:12:21;2.20;85.40
70734;DHT22;58320;48.804;9.252;2024-01-30T03:14:47;2.20;85.50
70734;DHT22;58320;48.804;9.252;2024-01-30T03:17:13;2.20;85.60
70734;DHT22;58320;48.804;9.252;2024-01-30T03:19:39;2.10;85.70
70734;DHT22;58320;48.804;9.252;2024-01-30T03:22:06;2.20;86.00
70734;DHT22;58320;48.804;9.252;2024-01-30T03:24:31;2.20;85.90
70734;DHT22;58320;48.804;9.252;2024-01-30T03:26:57;2.10;85.90
70734;DHT22;58320;48.804;9.252;2024-01-30T03:29:23;2.10;86.10
70734;DHT22;58320;48.804;9.252;2024-01-30T03:31:48;2.00;86.30
70734;DHT22;58320;48.804;9.252;2024-01-30T03:34:14;2.00;86.40
70734;DHT22;58320;48.804;9.252;2024-01-30T03:36:40;2.00;86.50
70734;DHT22;58320;48.804;9.252;2024-01-30T03:39:05;1.90;86.60
70734;DHT22;58320;48.804;9.252;2024-01-30T03:41:31;1.90;86.60
70734;DHT22;58320;48.804;9.252;2024-01-30T03:43:57;1.90;86.80
70734;DHT22;58320;48.804;9.252;2024-01-30T03:46:23;1.80;87.00
70734;DHT22;58320;48.804;9.252;2024-01-30T03:48:48;1.80;87.10
70734;DHT22;58320;48.804;9.252;2024-01-30T03:51:14;1.70;87.30
70734;DHT22;58320;48.804;9.252;2024-01-30T03:53:44;1.80;87.60
70734;DHT22;58320;48.804;9.252;2024-01-30T03:56:11;1.80;87.40
70734;DHT22;58320;48.804;9.252;2024-01-30T03:58:39;1.80;87.50
70734;DHT22;58320;48.804;9.252;2024-01-30T04:03:44;-50.00;1.00
70734;DHT22;58320;48.804;9.252;2024-01-30T04:06:10;1.70;87.40
70734;DHT22;58320;48.804;9.252;2024-01-30T04:08:36;1.70;88.10
70734;DHT22;58320;48.804;9.252;2024-01-30T04:11:05;1.70;88.10
70734;DHT22;58320;48.804;9.252;2024-01-30T04:13:32;1.80;88.20
70734;DHT22;58320;48.804;9.252;2024-01-30T04:16:02;1.70;87.90
70734;DHT22;58320;48.804;9.252;2024-01-30T04:18:28;1.70;88.00
70734;DHT22;58320;48.804;9.252;2024-01-30T04:20:54;1.70;87.80
70734;DHT22;58320;48.804;9.252;2024-01-30T04:23:20;1.70;87.80
70734;DHT22;58320;48.804;9.252;2024-01-30T04:25:46;1.60;88.00
70734;DHT22;58320;48.804;9.252;2024-01-30T04:28:12;1.60;88.10
70734;DHT22;58320;48.804;9.252;2024-01-30T04:30:38;1.50;88.10
70734;DHT22;58320;48.804;9.252;2024-01-30T04:33:04;1.50;88.20
70734;DHT22;58320;48.804;9.252;2024-01-30T04:35:29;1.50;88.30
70734;DHT22;58320;48.804;9.252;2024-01-30T04:37:55;1.50;88.40
70734;DHT22;58320;48.804;9.252;2024-01-30T04:40:21;1.40;88.60
70734;DHT22;58320;48.804;9.252;2024-01-30T04:42:47;1.40;88.60
70734;DHT22;58320;48.804;9.252;2024-01-30T04:45:12;1.40;88.70
70734;DHT22;58320;48.804;9.252;2024-01-30T04:47:38;1.40;88.60
70734;DHT22;58320;48.804;9.252;2024-01-30T04:50:07;1.40;88.50
70734;DHT22;58320;48.804;9.252;2024-01-30T04:52:34;1.30;88.50
70734;DHT22;58320;48.804;9.252;2024-01-30T04:55:00;1.30;88.90
70734;DHT22;58320;48.804;9.252;2024-01-30T04:57:25;1.20;89.00
70734;DHT22;58320;48.804;9.252;2024-01-30T04:59:51;1.20;89.20
70734;DHT22;58320;48.804;9.252;2024-01-30T05:02:17;1.20;89.20
70734;DHT22;58320;48.804;9.252;2024-01-30T05:04:42;1.20;89.20
70734;DHT22;58320;48.804;9.252;2024-01-30T05:07:08;1.20;89.20
70734;DHT22;58320;48.804;9.252;2024-01-30T05:09:34;1.20;89.50
70734;DHT22;58320;48.804;9.252;2024-01-30T05:12:00;1.20;89.90
70734;DHT22;58320;48.804;9.252;2024-01-30T05:14:25;1.30;90.20
70734;DHT22;58320;48.804;9.252;2024-01-30T05:16:51;1.30;89.90
70734;DHT22;58320;48.804;9.252;2024-01-30T05:19:17;1.40;89.90
70734;DHT22;58320;48.804;9.252;2024-01-30T05:21:42;1.40;89.70
70734;DHT22;58320;48.804;9.252;2024-01-30T05:24:08;1.50;89.50
70734;DHT22;58320;48.804;9.252;2024-01-30T05:26:35;1.50;89.20
70734;DHT22;58320;48.804;9.252;2024-01-30T05:29:01;1.50;89.10
70734;DHT22;58320;48.804;9.252;2024-01-30T05:31:27;1.50;88.80
70734;DHT22;58320;48.804;9.252;2024-01-30T05:33:54;1.50;88.80
70734;DHT22;58320;48.804;9.252;2024-01-30T05:36:20;1.50;88.80
70734;DHT22;58320;48.804;9.252;2024-01-30T05:38:46;1.40;88.90
70734;DHT22;58320;48.804;9.252;2024-01-30T05:41:11;1.50;89.00
70734;DHT22;58320;48.804;9.252;2024-01-30T05:43:37;1.50;89.00
70734;DHT22;58320;48.804;9.252;2024-01-30T05:46:03;1.50;89.10
70734;DHT22;58320;48.804;9.252;2024-01-30T05:48:29;1.50;88.80
70734;DHT22;58320;48.804;9.252;2024-01-30T05:50:54;1.50;88.70
70734;DHT22;58320;48.804;9.252;2024-01-30T05:53:20;1.50;88.70
70734;DHT22;58320;48.804;9.252;2024-01-30T05:55:46;1.60;88.60
70734;DHT22;58320;48.804;9.252;2024-01-30T05:58:11;1.60;88.40
70734;DHT22;58320;48.804;9.252;2024-01-30T06:00:37;1.50;88.60
70734;DHT22;58320;48.804;9.252;2024-01-30T06:03:03;1.50;88.40
70734;DHT22;58320;48.804;9.252;2024-01-30T06:05:29;1.50;88.30
70734;DHT22;58320;48.804;9.252;2024-01-30T06:07:54;1.50;88.30
70734;DHT22;58320;48.804;9.252;2024-01-30T06:10:20;1.50;88.40
70734;DHT22;58320;48.804;9.252;2024-01-30T06:12:46;1.50;88.40
70734;DHT22;58320;48.804;9.252;2024-01-30T06:15:11;1.50;88.30
70734;DHT22;58320;48.804;9.252;2024-01-30T06:17:38;1.50;88.70
70734;DHT22;58320;48.804;9.252;2024-01-30T06:20:05;1.50;88.50
70734;DHT22;58320;48.804;9.252;2024-01-30T06:22:31;1.50;88.70
70734;DHT22;58320;48.804;9.252;2024-01-30T06:24:57;1.50;88.90
70734;DHT22;58320;48.804;9.252;2024-01-30T06:27:22;1.50;88.80
70734;DHT22;58320;48.804;9.252;2024-01-30T06:29:48;1.40;88.90
70734;DHT22;58320;48.804;9.252;2024-01-30T06:32:14;1.40;88.90
70734;DHT22;58320;48.804;9.252;2024-01-30T06:34:41;1.40;88.70
70734;DHT22;58320;48.804;9.252;2024-01-30T06:37:06;1.40;88.70
70734;DHT22;58320;48.804;9.252;2024-01-30T06:39:32;1.40;89.00
70734;DHT22;58320;48.804;9.252;2024-01-30T06:41:58;1.40;88.90
70734;DHT22;58320;48.804;9.252;2024-01-30T06:44:23;1.50;88.90
70734;DHT22;58320;48.804;9.252;2024-01-30T06:46:49;1.50;88.70
70734;DHT22;58320;48.804;9.252;2024-01-30T06:49:15;1.50;88.50
70734;DHT22;58320;48.804;9.252;2024-01-30T06:51:40;1.60;88.20
70734;DHT22;58320;48.804;9.252;2024-01-30T06:54:06;1.60;88.20
70734;DHT22;58320;48.804;9.252;2024-01-30T06:56:32;1.60;88.20
70734;DHT22;58320;48.804;9.252;2024-01-30T06:58:57;1.50;88.20
70734;DHT22;58320;48.804;9.252;2024-01-30T07:01:30;1.50;88.00
70734;DHT22;58320;48.804;9.252;2024-01-30T07:03:57;1.50;88.00
70734;DHT22;58320;48.804;9.252;2024-01-30T07:06:23;1.60;87.90
70734;DHT22;58320;48.804;9.252;2024-01-30T07:08:49;1.50;88.00
70734;DHT22;58320;48.804;9.252;2024-01-30T07:11:22;1.60;87.70
70734;DHT22;58320;48.804;9.252;2024-01-30T07:13:50;1.60;87.80
70734;DHT22;58320;48.804;9.252;2024-01-30T07:16:16;1.60;87.70
70734;DHT22;58320;48.804;9.252;2024-01-30T07:18:43;1.60;87.70
70734;DHT22;58320;48.804;9.252;2024-01-30T07:21:08;1.60;87.80
70734;DHT22;58320;48.804;9.252;2024-01-30T07:23:34;1.70;87.30
70734;DHT22;58320;48.804;9.252;2024-01-30T07:26:03;1.80;87.10
70734;DHT22;58320;48.804;9.252;2024-01-30T07:28:33;1.80;86.90
70734;DHT22;58320;48.804;9.252;2024-01-30T07:30:59;1.90;86.80
70734;DHT22;58320;48.804;9.252;2024-01-30T07:33:25;1.90;86.50
70734;DHT22;58320;48.804;9.252;2024-01-30T07:35:53;1.90;86.40
70734;DHT22;58320;48.804;9.252;2024-01-30T07:38:19;2.00;86.40
70734;DHT22;58320;48.804;9.252;2024-01-30T07:40:45;2.10;86.10
70734;DHT22;58320;48.804;9.252;2024-01-30T07:43:11;2.20;85.60
70734;DHT22;58320;48.804;9.252;2024-01-30T07:45:37;2.30;85.30
70734;DHT22;58320;48.804;9.252;2024-01-30T07:48:07;2.30;84.90
70734;DHT22;58320;48.804;9.252;2024-01-30T07:50:32;2.40;84.90
70734;DHT22;58320;48.804;9.252;2024-01-30T07:53:00;2.50;84.80
70734;DHT22;58320;48.804;9.252;2024-01-30T07:55:26;2.60;84.60
70734;DHT22;58320;48.804;9.252;2024-01-30T07:57:56;2.70;84.10
70734;DHT22;58320;48.804;9.252;2024-01-30T08:00:22;2.80;83.80
70734;DHT22;58320;48.804;9.252;2024-01-30T08:02:48;2.90;83.20
70734;DHT22;58320;48.804;9.252;2024-01-30T08:05:14;2.90;82.70
70734;DHT22;58320;48.804;9.252;2024-01-30T08:07:41;3.00;82.50
70734;DHT22;58320;48.804;9.252;2024-01-30T08:10:08;3.10;81.50
70734;DHT22;58320;48.804;9.252;2024-01-30T08:12:34;3.10;81.00
70734;DHT22;58320;48.804;9.252;2024-01-30T08:14:59;3.30;80.80
70734;DHT22;58320;48.804;9.252;2024-01-30T08:17:25;3.50;80.40
70734;DHT22;58320;48.804;9.252;2024-01-30T08:19:51;3.60;79.30
70734;DHT22;58320;48.804;9.252;2024-01-30T08:22:17;3.90;78.80
70734;DHT22;58320;48.804;9.252;2024-01-30T08:24:42;4.00;77.40
70734;DHT22;58320;48.804;9.252;2024-01-30T08:27:08;4.30;76.90
70734;DHT22;58320;48.804;9.252;2024-01-30T08:29:37;4.50;76.00
70734;DHT22;58320;48.804;9.252;2024-01-30T08:32:05;4.70;74.50
70734;DHT22;58320;48.804;9.252;2024-01-30T08:34:31;4.60;74.00
70734;DHT22;58320;48.804;9.252;2024-01-30T08:36:57;4.60;74.00
70734;DHT22;58320;48.804;9.252;2024-01-30T08:39:26;4.70;73.90
70734;DHT22;58320;48.804;9.252;2024-01-30T08:41:51;4.90;72.90
70734;DHT22;58320;48.804;9.252;2024-01-30T08:44:17;5.20;72.20
70734;DHT22;58320;48.804;9.252;2024-01-30T08:46:44;5.30;72.00
70734;DHT22;58320;48.804;9.252;2024-01-30T08:49:11;5.70;70.90
70734;DHT22;58320;48.804;9.252;2024-01-30T08:51:39;6.00;70.50
70734;DHT22;58320;48.804;9.252;2024-01-30T08:54:05;6.10;69.90
70734;DHT22;58320;48.804;9.252;2024-01-30T08:56:30;6.40;69.40
70734;DHT22;58320;48.804;9.252;2024-01-30T08:58:56;6.60;68.90
70734;DHT22;58320;48.804;9.252;2024-01-30T09:01:22;6.80;68.50
70734;DHT22;58320;48.804;9.252;2024-01-30T09:03:48;6.80;68.20
70734;DHT22;58320;48.804;9.252;2024-01-30T09:06:14;6.90;68.00
70734;DHT22;58320;48.804;9.252;2024-01-30T09:08:40;6.90;67.90
70734;DHT22;58320;48.804;9.252;2024-01-30T09:11:13;6.80;67.70
70734;DHT22;58320;48.804;9.252;2024-01-30T09:13:39;6.70;67.90
70734;DHT22;58320;48.804;9.252;2024-01-30T09:16:06;6.80;67.50
70734;DHT22;58320;48.804;9.252;2024-01-30T09:18:32;6.80;67.40
70734;DHT22;58320;48.804;9.252;2024-01-30T09:20:58;6.80;66.70
70734;DHT22;58320;48.804;9.252;2024-01-30T09:23:24;6.70;67.40
70734;DHT22;58320;48.804;9.252;2024-01-30T09:25:50;7.00;67.00
70734;DHT22;58320;48.804;9.252;2024-01-30T09:28:16;7.30;66.00
70734;DHT22;58320;48.804;9.252;2024-01-30T09:30:43;7.50;64.70
70734;DHT22;58320;48.804;9.252;2024-01-30T09:33:08;7.50;64.50
70734;DHT22;58320;48.804;9.252;2024-01-30T09:35:35;7.70;64.40
70734;DHT22;58320;48.804;9.252;2024-01-30T09:38:02;8.00;63.60
70734;DHT22;58320;48.804;9.252;2024-01-30T09:40:28;8.40;63.30
70734;DHT22;58320;48.804;9.252;2024-01-30T09:42:54;8.70;62.10
70734;DHT22;58320;48.804;9.252;2024-01-30T09:45:24;8.90;60.10
70734;DHT22;58320;48.804;9.252;2024-01-30T09:47:50;9.10;60.10
70734;DHT22;58320;48.804;9.252;2024-01-30T09:50:17;9.40;59.60
70734;DHT22;58320;48.804;9.252;2024-01-30T09:52:44;9.70;58.30
70734;DHT22;58320;48.804;9.252;2024-01-30T09:55:11;10.00;57.70
70734;DHT22;58320;48.804;9.252;2024-01-30T09:57:37;10.10;57.70
70734;DHT22;58320;48.804;9.252;2024-01-30T10:00:04;10.10;57.30
70734;DHT22;58320;48.804;9.252;2024-01-30T10:02:31;10.00;57.90
70734;DHT22;58320;48.804;9.252;2024-01-30T10:04:57;10.10;58.30
70734;DHT22;58320;48.804;9.252;2024-01-30T10:07:23;10.10;58.20
70734;DHT22;58320;48.804;9.252;2024-01-30T10:09:48;10.10;58.10
70734;DHT22;58320;48.804;9.252;2024-01-30T10:12:15;10.10;57.80
70734;DHT22;58320;48.804;9.252;2024-01-30T10:14:41;10.00;57.80
70734;DHT22;58320;48.804;9.252;2024-01-30T10:17:08;10.00;58.00
70734;DHT22;58320;48.804;9.252;2024-01-30T10:19:36;10.00;58.00
70734;DHT22;58320;48.804;9.252;2024-01-30T10:22:03;10.00;57.70
70734;DHT22;58320;48.804;9.252;2024-01-30T10:24:29;10.10;57.80
70734;DHT22;58320;48.804;9.252;2024-01-30T10:26:55;10.00;57.70
70734;DHT22;58320;48.804;9.252;2024-01-30T10:29:21;10.10;57.30
70734;DHT22;58320;48.804;9.252;2024-01-30T10:31:58;10.00;57.70
70734;DHT22;58320;48.804;9.252;2024-01-30T10:34:30;10.10;57.50
70734;DHT22;58320;48.804;9.252;2024-01-30T10:39:42;10.20;57.40
70734;DHT22;58320;48.804;9.252;2024-01-30T10:42:13;10.20;57.50
70734;DHT22;58320;48.804;9.252;2024-01-30T10:45:08;10.30;57.30
70734;DHT22;58320;48.804;9.252;2024-01-30T10:47:40;10.40;56.90
70734;DHT22;58320;48.804;9.252;2024-01-30T10:50:10;10.50;56.80
70734;DHT22;58320;48.804;9.252;2024-01-30T10:52:36;10.50;56.60
70734;DHT22;58320;48.804;9.252;2024-01-30T10:55:04;10.50;56.00
70734;DHT22;58320;48.804;9.252;2024-01-30T10:57:34;10.50;56.00
70734;DHT22;58320;48.804;9.252;2024-01-30T11:00:02;10.30;56.60
70734;DHT22;58320;48.804;9.252;2024-01-30T11:02:32;10.40;56.70
70734;DHT22;58320;48.804;9.252;2024-01-30T11:04:59;10.60;56.80
70734;DHT22;58320;48.804;9.252;2024-01-30T11:07:26;10.70;56.50
70734;DHT22;58320;48.804;9.252;2024-01-30T11:12:28;11.00;56.00
70734;DHT22;58320;48.804;9.252;2024-01-30T11:15:08;11.10;55.80
70734;DHT22;58320;48.804;9.252;2024-01-30T11:22:57;11.40;55.00
70734;DHT22;58320;48.804;9.252;2024-01-30T11:25:24;11.50;53.70
70734;DHT22;58320;48.804;9.252;2024-01-30T11:27:54;11.70;54.60
70734;DHT22;58320;48.804;9.252;2024-01-30T11:30:28;11.90;54.10
70734;DHT22;58320;48.804;9.252;2024-01-30T11:35:33;12.00;53.50
70734;DHT22;58320;48.804;9.252;2024-01-30T11:38:01;12.10;53.10
70734;DHT22;58320;48.804;9.252;2024-01-30T11:40:31;12.10;53.50
70734;DHT22;58320;48.804;9.252;2024-01-30T11:42:59;12.10;53.70
70734;DHT22;58320;48.804;9.252;2024-01-30T11:45:28;12.20;53.40
70734;DHT22;58320;48.804;9.252;2024-01-30T11:47:54;12.20;53.20
70734;DHT22;58320;48.804;9.252;2024-01-30T11:50:21;12.10;53.60
70734;DHT22;58320;48.804;9.252;2024-01-30T11:52:48;12.20;53.50
70734;DHT22;58320;48.804;9.252;2024-01-30T11:55:14;12.10;53.10
70734;DHT22;58320;48.804;9.252;2024-01-30T11:57:41;12.20;53.00
70734;DHT22;58320;48.804;9.252;2024-01-30T12:00:14;12.20;53.20
70734;DHT22;58320;48.804;9.252;2024-01-30T12:02:42;12.30;53.10
70734;DHT22;58320;48.804;9.252;2024-01-30T12:05:08;12.30;52.60
70734;DHT22;58320;48.804;9.252;2024-01-30T12:07:35;12.30;52.60
70734;DHT22;58320;48.804;9.252;2024-01-30T12:10:01;12.40;52.90
70734;DHT22;58320;48.804;9.252;2024-01-30T12:12:28;12.50;52.50
70734;DHT22;58320;48.804;9.252;2024-01-30T12:14:55;12.60;52.80
70734;DHT22;58320;48.804;9.252;2024-01-30T12:17:30;12.70;52.20
70734;DHT22;58320;48.804;9.252;2024-01-30T12:22:36;12.70;52.20
70734;DHT22;58320;48.804;9.252;2024-01-30T12:25:14;12.70;51.90
70734;DHT22;58320;48.804;9.252;2024-01-30T12:27:47;12.60;52.90
70734;DHT22;58320;48.804;9.252;2024-01-30T12:30:16;12.80;52.80
70734;DHT22;58320;48.804;9.252;2024-01-30T12:32:44;13.00;52.10
70734;DHT22;58320;48.804;9.252;2024-01-30T12:35:17;13.10;51.80
70734;DHT22;58320;48.804;9.252;2024-01-30T12:37:45;13.30;51.50
70734;DHT22;58320;48.804;9.252;2024-01-30T12:40:12;13.40;50.70
70734;DHT22;58320;48.804;9.252;2024-01-30T12:42:43;13.40;50.60
70734;DHT22;58320;48.804;9.252;2024-01-30T12:45:11;13.40;50.50
70734;DHT22;58320;48.804;9.252;2024-01-30T12:47:37;13.40;50.90
70734;DHT22;58320;48.804;9.252;2024-01-30T12:50:03;13.50;50.70
70734;DHT22;58320;48.804;9.252;2024-01-30T12:52:29;13.60;50.50
70734;DHT22;58320;48.804;9.252;2024-01-30T12:54:55;13.90;50.20
70734;DHT22;58320;48.804;9.252;2024-01-30T12:57:21;14.30;49.30
70734;DHT22;58320;48.804;9.252;2024-01-30T12:59:47;14.80;47.80
70734;DHT22;58320;48.804;9.252;2024-01-30T13:02:13;15.20;47.20
70734;DHT22;58320;48.804;9.252;2024-01-30T13:04:40;15.60;46.60
70734;DHT22;58320;48.804;9.252;2024-01-30T13:07:06;15.70;46.40
70734;DHT22;58320;48.804;9.252;2024-01-30T13:09:32;15.60;46.50
70734;DHT22;58320;48.804;9.252;2024-01-30T13:11:58;15.40;47.10
70734;DHT22;58320;48.804;9.252;2024-01-30T13:14:25;15.10;47.80
70734;DHT22;58320;48.804;9.252;2024-01-30T13:16:51;15.10;48.50
70734;DHT22;58320;48.804;9.252;2024-01-30T13:19:17;15.00;47.90
70734;DHT22;58320;48.804;9.252;2024-01-30T13:21:43;14.80;48.20
70734;DHT22;58320;48.804;9.252;2024-01-30T13:24:09;15.10;47.70
70734;DHT22;58320;48.804;9.252;2024-01-30T13:26:35;15.90;47.30
70734;DHT22;58320;48.804;9.252;2024-01-30T13:29:01;16.80;46.20
70734;DHT22;58320;48.804;9.252;2024-01-30T13:31:28;17.30;45.50
70734;DHT22;58320;48.804;9.252;2024-01-30T13:33:54;17.40;45.50
70734;DHT22;58320;48.804;9.252;2024-01-30T13:36:20;17.20;46.10
70734;DHT22;58320;48.804;9.252;2024-01-30T13:38:47;16.80;46.40
70734;DHT22;58320;48.804;9.252;2024-01-30T13:41:13;16.10;47.60
70734;DHT22;58320;48.804;9.252;2024-01-30T13:43:38;15.60;48.80
70734;DHT22;58320;48.804;9.252;2024-01-30T13:46:04;15.20;49.70
70734;DHT22;58320;48.804;9.252;2024-01-30T13:48:31;14.70;50.50
70734;DHT22;58320;48.804;9.252;2024-01-30T13:50:57;14.40;51.40
70734;DHT22;58320;48.804;9.252;2024-01-30T13:53:23;14.40;52.00
70734;DHT22;58320;48.804;9.252;2024-01-30T13:55:49;14.20;52.70
70734;DHT22;58320;48.804;9.252;2024-01-30T13:58:14;13.90;53.50
70734;DHT22;58320;48.804;9.252;2024-01-30T14:00:40;13.90;53.80
70734;DHT22;58320;48.804;9.252;2024-01-30T14:03:06;13.80;53.90
70734;DHT22;58320;48.804;9.252;2024-01-30T14:05:32;13.90;53.60
70734;DHT22;58320;48.804;9.252;2024-01-30T14:07:58;13.80;53.50
70734;DHT22;58320;48.804;9.252;2024-01-30T14:10:25;13.80;53.50
70734;DHT22;58320;48.804;9.252;2024-01-30T14:12:51;13.80;53.80
70734;DHT22;58320;48.804;9.252;2024-01-30T14:15:16;13.80;53.80
70734;DHT22;58320;48.804;9.252;2024-01-30T14:17:45;13.60;54.10
70734;DHT22;58320;48.804;9.252;2024-01-30T14:20:14;13.40;54.50
70734;DHT22;58320;48.804;9.252;2024-01-30T14:22:42;13.20;54.90
70734;DHT22;58320;48.804;9.252;2024-01-30T14:25:08;13.10;55.40
70734;DHT22;58320;48.804;9.252;2024-01-30T14:27:35;12.90;55.70
70734;DHT22;58320;48.804;9.252;2024-01-30T14:30:01;12.90;56.00
70734;DHT22;58320;48.804;9.252;2024-01-30T14:32:26;12.80;56.20
70734;DHT22;58320;48.804;9.252;2024-01-30T14:34:52;12.80;56.50
70734;DHT22;58320;48.804;9.252;2024-01-30T14:37:19;12.80;56.30
70734;DHT22;58320;48.804;9.252;2024-01-30T14:39:45;12.70;56.20
70734;DHT22;58320;48.804;9.252;2024-01-30T14:42:11;12.70;56.60
70734;DHT22;58320;48.804;9.252;2024-01-30T14:44:36;12.60;57.20
70734;DHT22;58320;48.804;9.252;2024-01-30T14:47:02;12.50;57.20
70734;DHT22;58320;48.804;9.252;2024-01-30T14:49:28;12.40;57.40
70734;DHT22;58320;48.804;9.252;2024-01-30T14:51:54;12.40;57.60
70734;DHT22;58320;48.804;9.252;2024-01-30T14:54:19;12.30;58.40
70734;DHT22;58320;48.804;9.252;2024-01-30T14:56:46;12.20;59.40
70734;DHT22;58320;48.804;9.252;2024-01-30T14:59:12;12.00;59.90
70734;DHT22;58320;48.804;9.252;2024-01-30T15:01:37;11.90;60.50
70734;DHT22;58320;48.804;9.252;2024-01-30T15:04:03;11.70;61.30
70734;DHT22;58320;48.804;9.252;2024-01-30T15:06:29;11.60;61.60
70734;DHT22;58320;48.804;9.252;2024-01-30T15:08:55;11.40;62.10
70734;DHT22;58320;48.804;9.252;2024-01-30T15:11:21;11.30;62.20
70734;DHT22;58320;48.804;9.252;2024-01-30T15:13:46;11.20;62.40
70734;DHT22;58320;48.804;9.252;2024-01-30T15:16:12;11.10;62.60
70734;DHT22;58320;48.804;9.252;2024-01-30T15:18:38;11.00;62.90
70734;DHT22;58320;48.804;9.252;2024-01-30T15:21:04;10.90;63.20
70734;DHT22;58320;48.804;9.252;2024-01-30T15:23:30;10.90;63.10
70734;DHT22;58320;48.804;9.252;2024-01-30T15:25:55;10.80;63.00
70734;DHT22;58320;48.804;9.252;2024-01-30T15:28:34;10.70;63.40
70734;DHT22;58320;48.804;9.252;2024-01-30T15:31:04;10.70;63.70
70734;DHT22;58320;48.804;9.252;2024-01-30T15:33:31;10.60;63.80
70734;DHT22;58320;48.804;9.252;2024-01-30T15:36:00;10.50;64.00
70734;DHT22;58320;48.804;9.252;2024-01-30T15:38:26;10.50;64.00
70734;DHT22;58320;48.804;9.252;2024-01-30T15:40:53;10.30;63.90
70734;DHT22;58320;48.804;9.252;2024-01-30T15:43:18;10.20;63.80
70734;DHT22;58320;48.804;9.252;2024-01-30T15:45:44;10.10;63.90
70734;DHT22;58320;48.804;9.252;2024-01-30T15:48:10;10.00;64.40
70734;DHT22;58320;48.804;9.252;2024-01-30T15:50:35;10.00;64.60
70734;DHT22;58320;48.804;9.252;2024-01-30T15:53:01;9.90;64.70
70734;DHT22;58320;48.804;9.252;2024-01-30T15:55:27;9.80;65.60